sensor_id;sensor_type;location;lat;lon;timestamp;temperature;humidity
563;DHT22;266;49.514;8.294;2023-05-19T00:00:41;10.40;99.90
563;DHT22;266;49.514;8.294;2023-05-19T00:03:14;10.40;99.90
563;DHT22;266;49.514;8.294;2023-05-19T00:05:44;10.30;99.90
563;DHT22;266;49.514;8.294;2023-05-19T00:08:15;10.30;99.90
563;DHT22;266;49.514;8.294;2023-05-19T00:10:45;10.30;99.90
563;DHT22;266;49.514;8.294;2023-05-19T00:13:14;10.20;99.90
563;DHT22;266;49.514;8.294;2023-05-19T00:15:42;10.20;99.90
563;DHT22;266;49.514;8.294;2023-05-19T00:18:10;10.20;99.90
563;DHT22;266;49.514;8.294;2023-05-19T00:20:39;10.10;99.90
563;DHT22;266;49.514;8.294;2023-05-19T00:23:09;10.10;99.90
563;DHT22;266;49.514;8.294;2023-05-19T00:25:38;10.10;99.90
563;DHT22;266;49.514;8.294;2023-05-19T00:28:07;10.10;99.90
563;DHT22;266;49.514;8.294;2023-05-19T00:30:35;10.10;99.90
563;DHT22;266;49.514;8.294;2023-05-19T00:33:03;10.00;99.90
563;DHT22;266;49.514;8.294;2023-05-19T00:35:31;10.00;99.90
563;DHT22;266;49.514;8.294;2023-05-19T00:37:59;10.10;99.90
563;DHT22;266;49.514;8.294;2023-05-19T00:40:29;10.00;99.90
563;DHT22;266;49.514;8.294;2023-05-19T00:42:59;10.00;99.90
563;DHT22;266;49.514;8.294;2023-05-19T00:45:28;10.00;99.90
563;DHT22;266;49.514;8.294;2023-05-19T00:47:56;9.90;99.90
563;DHT22;266;49.514;8.294;2023-05-19T00:50:25;9.90;99.90
563;DHT22;266;49.514;8.294;2023-05-19T00:52:54;9.90;99.90
563;DHT22;266;49.514;8.294;2023-05-19T00:55:25;9.80;99.90
563;DHT22;266;49.514;8.294;2023-05-19T00:57:55;9.80;99.90
563;DHT22;266;49.514;8.294;2023-05-19T01:00:23;9.80;99.90
563;DHT22;266;49.514;8.294;2023-05-19T01:02:53;9.70;99.90
563;DHT22;266;49.514;8.294;2023-05-19T01:05:21;9.70;99.90
563;DHT22;266;49.514;8.294;2023-05-19T01:07:50;9.70;99.90
563;DHT22;266;49.514;8.294;2023-05-19T01:10:19;9.60;99.90
563;DHT22;266;49.514;8.294;2023-05-19T01:12:47;9.60;99.90
563;DHT22;266;49.514;8.294;2023-05-19T01:15:15;9.60;99.90
563;DHT22;266;49.514;8.294;2023-05-19T01:17:47;9.60;99.90
563;DHT22;266;49.514;8.294;2023-05-19T01:20:20;9.50;99.90
563;DHT22;266;49.514;8.294;2023-05-19T01:23:11;9.50;99.90
563;DHT22;266;49.514;8.294;2023-05-19T01:29:02;9.40;99.90
563;DHT22;266;49.514;8.294;2023-05-19T01:31:36;9.40;99.90
563;DHT22;266;49.514;8.294;2023-05-19T01:34:05;9.40;99.90
563;DHT22;266;49.514;8.294;2023-05-19T01:36:35;9.40;99.90
563;DHT22;266;49.514;8.294;2023-05-19T01:39:04;9.40;99.90
563;DHT22;266;49.514;8.294;2023-05-19T01:41:33;9.30;99.90
563;DHT22;266;49.514;8.294;2023-05-19T01:44:01;9.30;99.90
563;DHT22;266;49.514;8.294;2023-05-19T01:46:29;9.30;99.90
563;DHT22;266;49.514;8.294;2023-05-19T01:48:59;9.30;99.90
563;DHT22;266;49.514;8.294;2023-05-19T01:51:27;9.30;99.90
563;DHT22;266;49.514;8.294;2023-05-19T01:53:55;9.30;99.90
563;DHT22;266;49.514;8.294;2023-05-19T01:56:31;9.30;99.90
563;DHT22;266;49.514;8.294;2023-05-19T01:59:11;9.20;99.90
563;DHT22;266;49.514;8.294;2023-05-19T02:01:48;9.20;99.90
563;DHT22;266;49.514;8.294;2023-05-19T02:04:27;9.20;99.90
563;DHT22;266;49.514;8.294;2023-05-19T02:07:02;9.10;99.90
563;DHT22;266;49.514;8.294;2023-05-19T02:09:37;9.10;99.90
563;DHT22;266;49.514;8.294;2023-05-19T02:12:10;9.10;99.90
563;DHT22;266;49.514;8.294;2023-05-19T02:14:44;9.10;99.90
563;DHT22;266;49.514;8.294;2023-05-19T02:17:17;9.10;99.90
563;DHT22;266;49.514;8.294;2023-05-19T02:19:46;9.10;99.90
563;DHT22;266;49.514;8.294;2023-05-19T02:22:14;9.10;99.90
563;DHT22;266;49.514;8.294;2023-05-19T02:24:42;9.10;99.90
563;DHT22;266;49.514;8.294;2023-05-19T02:27:12;9.00;99.90
563;DHT22;266;49.514;8.294;2023-05-19T02:29:40;9.10;99.90
563;DHT22;266;49.514;8.294;2023-05-19T02:32:08;9.00;99.90
563;DHT22;266;49.514;8.294;2023-05-19T02:34:36;9.00;99.90
563;DHT22;266;49.514;8.294;2023-05-19T02:37:05;9.00;99.90
563;DHT22;266;49.514;8.294;2023-05-19T02:39:33;9.00;99.90
563;DHT22;266;49.514;8.294;2023-05-19T02:42:01;9.00;99.90
563;DHT22;266;49.514;8.294;2023-05-19T02:44:29;8.90;99.90
563;DHT22;266;49.514;8.294;2023-05-19T02:46:57;8.90;99.90
563;DHT22;266;49.514;8.294;2023-05-19T02:49:26;8.90;99.90
563;DHT22;266;49.514;8.294;2023-05-19T02:51:56;8.90;99.90
563;DHT22;266;49.514;8.294;2023-05-19T02:54:25;8.90;99.90
563;DHT22;266;49.514;8.294;2023-05-19T02:56:54;8.80;99.90
563;DHT22;266;49.514;8.294;2023-05-19T02:59:21;8.80;99.90
563;DHT22;266;49.514;8.294;2023-05-19T03:01:54;8.80;99.90
563;DHT22;266;49.514;8.294;2023-05-19T03:04:22;8.70;99.90
563;DHT22;266;49.514;8.294;2023-05-19T03:06:50;8.70;99.90
563;DHT22;266;49.514;8.294;2023-05-19T03:09:19;8.70;99.90
563;DHT22;266;49.514;8.294;2023-05-19T03:11:49;8.70;99.90
563;DHT22;266;49.514;8.294;2023-05-19T03:14:16;8.60;99.90
563;DHT22;266;49.514;8.294;2023-05-19T03:16:49;8.60;99.90
563;DHT22;266;49.514;8.294;2023-05-19T03:19:18;8.60;99.90
563;DHT22;266;49.514;8.294;2023-05-19T03:21:48;8.60;99.90
563;DHT22;266;49.514;8.294;2023-05-19T03:24:16;8.60;99.90
563;DHT22;266;49.514;8.294;2023-05-19T03:26:44;8.60;99.90
563;DHT22;266;49.514;8.294;2023-05-19T03:29:14;8.60;99.90
563;DHT22;266;49.514;8.294;2023-05-19T03:31:42;8.50;99.90
563;DHT22;266;49.514;8.294;2023-05-19T03:34:10;8.50;99.90
563;DHT22;266;49.514;8.294;2023-05-19T03:36:38;8.50;99.90
563;DHT22;266;49.514;8.294;2023-05-19T03:39:06;8.50;99.90
563;DHT22;266;49.514;8.294;2023-05-19T03:41:35;8.50;99.90
563;DHT22;266;49.514;8.294;2023-05-19T03:44:03;8.50;99.90
563;DHT22;266;49.514;8.294;2023-05-19T03:46:32;8.50;99.90
563;DHT22;266;49.514;8.294;2023-05-19T03:49:00;8.40;99.90
563;DHT22;266;49.514;8.294;2023-05-19T03:51:28;8.40;99.90
563;DHT22;266;49.514;8.294;2023-05-19T03:53:56;8.50;99.90
563;DHT22;266;49.514;8.294;2023-05-19T03:56:24;8.50;99.90
563;DHT22;266;49.514;8.294;2023-05-19T03:58:53;8.50;99.90
563;DHT22;266;49.514;8.294;2023-05-19T04:01:21;8.50;99.90
563;DHT22;266;49.514;8.294;2023-05-19T04:03:51;8.50;99.90
563;DHT22;266;49.514;8.294;2023-05-19T04:06:19;8.50;99.90
563;DHT22;266;49.514;8.294;2023-05-19T04:08:47;8.50;99.90
563;DHT22;266;49.514;8.294;2023-05-19T04:11:15;8.50;99.90
563;DHT22;266;49.514;8.294;2023-05-19T04:13:45;8.50;99.90
563;DHT22;266;49.514;8.294;2023-05-19T04:16:13;8.50;99.90
563;DHT22;266;49.514;8.294;2023-05-19T04:18:41;8.50;99.90
563;DHT22;266;49.514;8.294;2023-05-19T04:21:12;8.60;99.90
563;DHT22;266;49.514;8.294;2023-05-19T04:23:40;8.60;99.90
563;DHT22;266;49.514;8.294;2023-05-19T04:26:08;8.60;99.90
563;DHT22;266;49.514;8.294;2023-05-19T04:28:36;8.60;99.90
563;DHT22;266;49.514;8.294;2023-05-19T04:31:07;8.60;99.90
563;DHT22;266;49.514;8.294;2023-05-19T04:33:36;8.60;99.90
563;DHT22;266;49.514;8.294;2023-05-19T04:36:05;8.60;99.90
563;DHT22;266;49.514;8.294;2023-05-19T04:38:38;8.70;99.90
563;DHT22;266;49.514;8.294;2023-05-19T04:41:06;8.70;99.90
563;DHT22;266;49.514;8.294;2023-05-19T04:43:37;8.70;99.90
563;DHT22;266;49.514;8.294;2023-05-19T04:46:09;8.70;99.90
563;DHT22;266;49.514;8.294;2023-05-19T04:48:39;8.80;99.90
563;DHT22;266;49.514;8.294;2023-05-19T04:51:08;8.80;99.90
563;DHT22;266;49.514;8.294;2023-05-19T04:53:41;8.80;99.90
563;DHT22;266;49.514;8.294;2023-05-19T04:56:10;8.80;99.90
563;DHT22;266;49.514;8.294;2023-05-19T04:58:41;8.90;99.90
563;DHT22;266;49.514;8.294;2023-05-19T05:01:10;8.90;99.90
563;DHT22;266;49.514;8.294;2023-05-19T05:03:40;9.00;99.90
563;DHT22;266;49.514;8.294;2023-05-19T05:06:08;9.00;99.90
563;DHT22;266;49.514;8.294;2023-05-19T05:08:37;9.10;99.90
563;DHT22;266;49.514;8.294;2023-05-19T05:11:08;9.10;99.90
563;DHT22;266;49.514;8.294;2023-05-19T05:13:36;9.20;99.90
563;DHT22;266;49.514;8.294;2023-05-19T05:16:05;9.30;99.90
563;DHT22;266;49.514;8.294;2023-05-19T05:18:34;9.30;99.90
563;DHT22;266;49.514;8.294;2023-05-19T05:21:05;9.30;99.90
563;DHT22;266;49.514;8.294;2023-05-19T05:23:34;9.40;99.90
563;DHT22;266;49.514;8.294;2023-05-19T05:26:16;9.50;99.90
563;DHT22;266;49.514;8.294;2023-05-19T05:28:45;9.50;99.90
563;DHT22;266;49.514;8.294;2023-05-19T05:31:13;9.60;99.90
563;DHT22;266;49.514;8.294;2023-05-19T05:33:41;9.60;99.90
563;DHT22;266;49.514;8.294;2023-05-19T05:36:10;9.70;99.90
563;DHT22;266;49.514;8.294;2023-05-19T05:38:39;9.70;99.90
563;DHT22;266;49.514;8.294;2023-05-19T05:41:07;9.80;99.90
563;DHT22;266;49.514;8.294;2023-05-19T05:43:36;9.90;99.90
563;DHT22;266;49.514;8.294;2023-05-19T05:46:04;10.00;99.90
563;DHT22;266;49.514;8.294;2023-05-19T05:48:33;10.00;99.90
563;DHT22;266;49.514;8.294;2023-05-19T05:51:01;10.10;99.90
563;DHT22;266;49.514;8.294;2023-05-19T05:53:30;10.20;99.90
563;DHT22;266;49.514;8.294;2023-05-19T05:56:04;10.30;99.90
563;DHT22;266;49.514;8.294;2023-05-19T05:58:32;10.30;99.90
563;DHT22;266;49.514;8.294;2023-05-19T06:01:04;10.40;99.90
563;DHT22;266;49.514;8.294;2023-05-19T06:03:37;10.50;99.90
563;DHT22;266;49.514;8.294;2023-05-19T06:06:06;10.60;99.90
563;DHT22;266;49.514;8.294;2023-05-19T06:08:34;10.70;99.90
563;DHT22;266;49.514;8.294;2023-05-19T06:11:02;10.70;99.90
563;DHT22;266;49.514;8.294;2023-05-19T06:13:34;10.80;99.90
563;DHT22;266;49.514;8.294;2023-05-19T06:16:04;10.90;99.90
563;DHT22;266;49.514;8.294;2023-05-19T06:18:32;11.00;99.90
563;DHT22;266;49.514;8.294;2023-05-19T06:21:00;11.10;99.90
563;DHT22;266;49.514;8.294;2023-05-19T06:23:29;11.10;99.90
563;DHT22;266;49.514;8.294;2023-05-19T06:25:57;11.20;99.90
563;DHT22;266;49.514;8.294;2023-05-19T06:28:25;11.30;99.90
563;DHT22;266;49.514;8.294;2023-05-19T06:30:53;11.40;99.90
563;DHT22;266;49.514;8.294;2023-05-19T06:33:22;11.60;99.90
563;DHT22;266;49.514;8.294;2023-05-19T06:35:54;11.70;99.90
563;DHT22;266;49.514;8.294;2023-05-19T06:38:22;11.80;99.90
563;DHT22;266;49.514;8.294;2023-05-19T06:40:50;11.90;99.90
563;DHT22;266;49.514;8.294;2023-05-19T06:43:18;12.10;99.90
563;DHT22;266;49.514;8.294;2023-05-19T06:45:46;12.20;99.90
563;DHT22;266;49.514;8.294;2023-05-19T06:48:14;12.30;99.90
563;DHT22;266;49.514;8.294;2023-05-19T06:50:43;12.40;99.90
563;DHT22;266;49.514;8.294;2023-05-19T06:53:11;12.50;99.90
563;DHT22;266;49.514;8.294;2023-05-19T06:55:40;12.60;99.90
563;DHT22;266;49.514;8.294;2023-05-19T06:58:23;12.80;99.90
563;DHT22;266;49.514;8.294;2023-05-19T07:00:52;12.90;99.90
563;DHT22;266;49.514;8.294;2023-05-19T07:03:20;13.00;99.90
563;DHT22;266;49.514;8.294;2023-05-19T07:05:49;13.20;99.90
563;DHT22;266;49.514;8.294;2023-05-19T07:08:17;13.30;99.90
563;DHT22;266;49.514;8.294;2023-05-19T07:10:45;13.40;99.90
563;DHT22;266;49.514;8.294;2023-05-19T07:13:13;13.60;99.90
563;DHT22;266;49.514;8.294;2023-05-19T07:15:41;13.60;99.90
563;DHT22;266;49.514;8.294;2023-05-19T07:18:09;13.60;99.90
563;DHT22;266;49.514;8.294;2023-05-19T07:20:37;13.70;99.90
563;DHT22;266;49.514;8.294;2023-05-19T07:23:07;13.70;99.90
563;DHT22;266;49.514;8.294;2023-05-19T07:25:34;13.70;99.90
563;DHT22;266;49.514;8.294;2023-05-19T07:28:03;13.80;99.90
563;DHT22;266;49.514;8.294;2023-05-19T07:30:31;13.90;99.90
563;DHT22;266;49.514;8.294;2023-05-19T07:32:59;14.00;99.90
563;DHT22;266;49.514;8.294;2023-05-19T07:35:27;14.00;99.90
563;DHT22;266;49.514;8.294;2023-05-19T07:37:55;14.10;99.90
563;DHT22;266;49.514;8.294;2023-05-19T07:40:24;14.30;99.90
563;DHT22;266;49.514;8.294;2023-05-19T07:42:52;14.40;99.90
563;DHT22;266;49.514;8.294;2023-05-19T07:45:20;14.50;99.90
563;DHT22;266;49.514;8.294;2023-05-19T07:47:48;14.50;99.90
563;DHT22;266;49.514;8.294;2023-05-19T07:50:16;14.60;99.90
563;DHT22;266;49.514;8.294;2023-05-19T07:52:44;14.80;99.90
563;DHT22;266;49.514;8.294;2023-05-19T07:55:12;14.90;99.90
563;DHT22;266;49.514;8.294;2023-05-19T07:57:46;15.00;99.90
563;DHT22;266;49.514;8.294;2023-05-19T08:00:15;15.30;99.90
563;DHT22;266;49.514;8.294;2023-05-19T08:02:43;15.50;99.90
563;DHT22;266;49.514;8.294;2023-05-19T08:05:11;15.70;99.90
563;DHT22;266;49.514;8.294;2023-05-19T08:07:40;15.80;99.90
563;DHT22;266;49.514;8.294;2023-05-19T08:10:08;15.90;99.90
563;DHT22;266;49.514;8.294;2023-05-19T08:12:36;16.10;99.90
563;DHT22;266;49.514;8.294;2023-05-19T08:15:06;16.20;99.90
563;DHT22;266;49.514;8.294;2023-05-19T08:17:34;16.50;99.90
563;DHT22;266;49.514;8.294;2023-05-19T08:20:06;16.80;99.90
563;DHT22;266;49.514;8.294;2023-05-19T08:22:35;17.20;99.90
563;DHT22;266;49.514;8.294;2023-05-19T08:25:04;17.50;99.90
563;DHT22;266;49.514;8.294;2023-05-19T08:27:33;17.80;99.90
563;DHT22;266;49.514;8.294;2023-05-19T08:30:01;18.20;99.90
563;DHT22;266;49.514;8.294;2023-05-19T08:32:30;18.60;99.90
563;DHT22;266;49.514;8.294;2023-05-19T08:34:58;19.00;99.90
563;DHT22;266;49.514;8.294;2023-05-19T08:37:27;19.30;99.90
563;DHT22;266;49.514;8.294;2023-05-19T08:39:56;19.60;99.90
563;DHT22;266;49.514;8.294;2023-05-19T08:42:24;19.80;99.90
563;DHT22;266;49.514;8.294;2023-05-19T08:44:52;20.00;99.90
563;DHT22;266;49.514;8.294;2023-05-19T08:47:20;20.30;99.90
563;DHT22;266;49.514;8.294;2023-05-19T08:49:58;20.60;99.90
563;DHT22;266;49.514;8.294;2023-05-19T08:52:34;20.90;99.90
563;DHT22;266;49.514;8.294;2023-05-19T08:55:07;20.90;99.90
563;DHT22;266;49.514;8.294;2023-05-19T08:57:37;21.10;99.90
563;DHT22;266;49.514;8.294;2023-05-19T09:00:06;21.20;99.90
563;DHT22;266;49.514;8.294;2023-05-19T09:02:37;21.40;99.90
563;DHT22;266;49.514;8.294;2023-05-19T09:05:27;21.40;99.90
563;DHT22;266;49.514;8.294;2023-05-19T09:07:55;21.50;99.90
563;DHT22;266;49.514;8.294;2023-05-19T09:10:23;21.70;99.90
563;DHT22;266;49.514;8.294;2023-05-19T09:12:54;22.00;99.90
563;DHT22;266;49.514;8.294;2023-05-19T09:15:25;22.20;99.90
563;DHT22;266;49.514;8.294;2023-05-19T09:18:05;22.50;99.90
563;DHT22;266;49.514;8.294;2023-05-19T09:20:38;22.60;99.90
563;DHT22;266;49.514;8.294;2023-05-19T09:23:10;22.70;99.90
563;DHT22;266;49.514;8.294;2023-05-19T09:25:46;22.70;99.90
563;DHT22;266;49.514;8.294;2023-05-19T09:28:14;22.90;99.90
563;DHT22;266;49.514;8.294;2023-05-19T09:30:58;23.20;99.90
563;DHT22;266;49.514;8.294;2023-05-19T09:33:26;23.00;99.90
563;DHT22;266;49.514;8.294;2023-05-19T09:35:56;23.00;99.90
563;DHT22;266;49.514;8.294;2023-05-19T09:38:24;23.10;99.90
563;DHT22;266;49.514;8.294;2023-05-19T09:40:54;23.40;99.90
563;DHT22;266;49.514;8.294;2023-05-19T09:43:22;23.70;99.90
563;DHT22;266;49.514;8.294;2023-05-19T09:45:57;23.70;99.90
563;DHT22;266;49.514;8.294;2023-05-19T09:48:26;23.70;99.90
563;DHT22;266;49.514;8.294;2023-05-19T09:50:55;23.70;99.90
563;DHT22;266;49.514;8.294;2023-05-19T09:53:24;23.60;99.90
563;DHT22;266;49.514;8.294;2023-05-19T09:55:55;23.40;99.90
563;DHT22;266;49.514;8.294;2023-05-19T09:58:24;23.40;99.90
563;DHT22;266;49.514;8.294;2023-05-19T10:00:53;23.40;99.90
563;DHT22;266;49.514;8.294;2023-05-19T10:03:22;23.40;99.90
563;DHT22;266;49.514;8.294;2023-05-19T10:05:52;23.30;99.90
563;DHT22;266;49.514;8.294;2023-05-19T10:08:22;23.30;99.90
563;DHT22;266;49.514;8.294;2023-05-19T10:10:52;23.40;99.90
563;DHT22;266;49.514;8.294;2023-05-19T10:13:20;23.70;99.90
563;DHT22;266;49.514;8.294;2023-05-19T10:15:49;24.00;99.90
563;DHT22;266;49.514;8.294;2023-05-19T10:18:22;24.20;99.90
563;DHT22;266;49.514;8.294;2023-05-19T10:20:53;24.10;99.90
563;DHT22;266;49.514;8.294;2023-05-19T10:23:22;24.40;99.90
563;DHT22;266;49.514;8.294;2023-05-19T10:25:51;24.10;99.90
563;DHT22;266;49.514;8.294;2023-05-19T10:28:23;23.90;99.90
563;DHT22;266;49.514;8.294;2023-05-19T10:30:56;23.80;99.90
563;DHT22;266;49.514;8.294;2023-05-19T10:33:46;23.70;99.90
563;DHT22;266;49.514;8.294;2023-05-19T10:36:29;23.80;99.90
563;DHT22;266;49.514;8.294;2023-05-19T10:39:06;23.10;99.90
563;DHT22;266;49.514;8.294;2023-05-19T10:41:40;22.60;99.90
563;DHT22;266;49.514;8.294;2023-05-19T10:44:19;22.60;99.90
563;DHT22;266;49.514;8.294;2023-05-19T10:46:50;22.80;99.90
563;DHT22;266;49.514;8.294;2023-05-19T10:49:21;22.80;99.90
563;DHT22;266;49.514;8.294;2023-05-19T10:51:51;22.80;99.90
563;DHT22;266;49.514;8.294;2023-05-19T10:54:41;23.00;99.90
563;DHT22;266;49.514;8.294;2023-05-19T10:57:13;23.30;99.90
563;DHT22;266;49.514;8.294;2023-05-19T10:59:42;23.40;99.90
563;DHT22;266;49.514;8.294;2023-05-19T11:02:37;23.70;99.90
563;DHT22;266;49.514;8.294;2023-05-19T11:05:07;23.80;99.90
563;DHT22;266;49.514;8.294;2023-05-19T11:07:36;23.90;99.90
563;DHT22;266;49.514;8.294;2023-05-19T11:10:08;24.20;99.90
563;DHT22;266;49.514;8.294;2023-05-19T11:12:41;24.70;99.90
563;DHT22;266;49.514;8.294;2023-05-19T11:15:11;24.80;99.90
563;DHT22;266;49.514;8.294;2023-05-19T11:17:40;24.70;99.90
563;DHT22;266;49.514;8.294;2023-05-19T11:20:19;24.50;99.90
563;DHT22;266;49.514;8.294;2023-05-19T11:23:04;24.60;99.90
563;DHT22;266;49.514;8.294;2023-05-19T11:25:49;24.90;99.90
563;DHT22;266;49.514;8.294;2023-05-19T11:28:20;25.00;99.90
563;DHT22;266;49.514;8.294;2023-05-19T11:30:54;24.70;99.90
563;DHT22;266;49.514;8.294;2023-05-19T11:33:24;24.50;99.90
563;DHT22;266;49.514;8.294;2023-05-19T11:35:54;24.40;99.90
563;DHT22;266;49.514;8.294;2023-05-19T11:38:23;23.70;99.90
563;DHT22;266;49.514;8.294;2023-05-19T11:40:54;23.20;99.90
563;DHT22;266;49.514;8.294;2023-05-19T11:43:22;23.20;99.90
563;DHT22;266;49.514;8.294;2023-05-19T11:45:50;23.40;99.90
563;DHT22;266;49.514;8.294;2023-05-19T11:48:20;23.40;99.90
563;DHT22;266;49.514;8.294;2023-05-19T11:50:48;23.80;99.90
563;DHT22;266;49.514;8.294;2023-05-19T11:53:17;24.10;99.90
563;DHT22;266;49.514;8.294;2023-05-19T11:55:46;24.60;99.90
563;DHT22;266;49.514;8.294;2023-05-19T11:58:17;25.00;99.90
563;DHT22;266;49.514;8.294;2023-05-19T12:00:52;25.30;99.90
563;DHT22;266;49.514;8.294;2023-05-19T12:03:20;25.50;99.90
563;DHT22;266;49.514;8.294;2023-05-19T12:05:52;25.50;99.90
563;DHT22;266;49.514;8.294;2023-05-19T12:08:20;25.80;99.90
563;DHT22;266;49.514;8.294;2023-05-19T12:10:49;25.70;99.90
563;DHT22;266;49.514;8.294;2023-05-19T12:13:18;25.30;99.90
563;DHT22;266;49.514;8.294;2023-05-19T12:15:49;25.20;99.90
563;DHT22;266;49.514;8.294;2023-05-19T12:18:18;25.30;99.90
563;DHT22;266;49.514;8.294;2023-05-19T12:20:46;25.40;99.90
563;DHT22;266;49.514;8.294;2023-05-19T12:23:14;25.60;99.90
563;DHT22;266;49.514;8.294;2023-05-19T12:25:42;25.80;99.90
563;DHT22;266;49.514;8.294;2023-05-19T12:28:10;25.90;99.90
563;DHT22;266;49.514;8.294;2023-05-19T12:30:39;25.70;99.90
563;DHT22;266;49.514;8.294;2023-05-19T12:33:08;25.50;99.90
563;DHT22;266;49.514;8.294;2023-05-19T12:35:37;25.00;99.90
563;DHT22;266;49.514;8.294;2023-05-19T12:38:05;24.70;99.90
563;DHT22;266;49.514;8.294;2023-05-19T12:40:34;24.60;99.90
563;DHT22;266;49.514;8.294;2023-05-19T12:43:04;24.80;99.90
563;DHT22;266;49.514;8.294;2023-05-19T12:45:33;25.10;99.90
563;DHT22;266;49.514;8.294;2023-05-19T12:48:04;25.20;99.90
563;DHT22;266;49.514;8.294;2023-05-19T12:50:33;25.40;99.90
563;DHT22;266;49.514;8.294;2023-05-19T12:53:01;25.30;99.90
563;DHT22;266;49.514;8.294;2023-05-19T12:55:29;25.00;99.90
563;DHT22;266;49.514;8.294;2023-05-19T12:57:57;24.90;99.90
563;DHT22;266;49.514;8.294;2023-05-19T13:00:25;24.30;99.90
563;DHT22;266;49.514;8.294;2023-05-19T13:02:58;23.90;99.90
563;DHT22;266;49.514;8.294;2023-05-19T13:05:30;23.30;99.90
563;DHT22;266;49.514;8.294;2023-05-19T13:08:00;22.80;99.90
563;DHT22;266;49.514;8.294;2023-05-19T13:10:28;23.00;99.90
563;DHT22;266;49.514;8.294;2023-05-19T13:12:58;23.10;99.90
563;DHT22;266;49.514;8.294;2023-05-19T13:15:28;22.90;99.90
563;DHT22;266;49.514;8.294;2023-05-19T13:17:58;22.60;99.90
563;DHT22;266;49.514;8.294;2023-05-19T13:20:27;22.00;99.90
563;DHT22;266;49.514;8.294;2023-05-19T13:22:56;21.40;99.90
563;DHT22;266;49.514;8.294;2023-05-19T13:25:24;21.20;99.90
563;DHT22;266;49.514;8.294;2023-05-19T13:27:52;21.00;99.90
563;DHT22;266;49.514;8.294;2023-05-19T13:30:20;21.10;99.90
563;DHT22;266;49.514;8.294;2023-05-19T13:32:49;21.20;99.90
563;DHT22;266;49.514;8.294;2023-05-19T13:35:18;21.20;99.90
563;DHT22;266;49.514;8.294;2023-05-19T13:37:48;21.10;99.90
563;DHT22;266;49.514;8.294;2023-05-19T13:40:16;21.00;99.90
563;DHT22;266;49.514;8.294;2023-05-19T13:42:44;20.80;99.90
563;DHT22;266;49.514;8.294;2023-05-19T13:45:12;20.40;99.90
563;DHT22;266;49.514;8.294;2023-05-19T13:47:40;20.20;99.90
563;DHT22;266;49.514;8.294;2023-05-19T13:50:09;20.10;99.90
563;DHT22;266;49.514;8.294;2023-05-19T13:52:37;20.00;99.90
563;DHT22;266;49.514;8.294;2023-05-19T13:55:07;19.80;99.90
563;DHT22;266;49.514;8.294;2023-05-19T13:57:35;19.70;99.90
563;DHT22;266;49.514;8.294;2023-05-19T14:00:04;19.70;99.90
563;DHT22;266;49.514;8.294;2023-05-19T14:02:33;19.60;99.90
563;DHT22;266;49.514;8.294;2023-05-19T14:05:01;19.70;99.90
563;DHT22;266;49.514;8.294;2023-05-19T14:07:30;19.70;99.90
563;DHT22;266;49.514;8.294;2023-05-19T14:10:00;19.70;99.90
563;DHT22;266;49.514;8.294;2023-05-19T14:12:30;19.60;99.90
563;DHT22;266;49.514;8.294;2023-05-19T14:15:17;19.60;99.90
563;DHT22;266;49.514;8.294;2023-05-19T14:17:45;19.40;99.90
563;DHT22;266;49.514;8.294;2023-05-19T14:20:14;19.40;99.90
563;DHT22;266;49.514;8.294;2023-05-19T14:22:42;19.40;99.90
563;DHT22;266;49.514;8.294;2023-05-19T14:25:10;19.40;99.90
563;DHT22;266;49.514;8.294;2023-05-19T14:27:39;19.50;99.90
563;DHT22;266;49.514;8.294;2023-05-19T14:30:08;19.60;99.90
563;DHT22;266;49.514;8.294;2023-05-19T14:32:36;19.60;99.90
563;DHT22;266;49.514;8.294;2023-05-19T14:35:05;19.80;99.90
563;DHT22;266;49.514;8.294;2023-05-19T14:37:33;19.70;99.90
563;DHT22;266;49.514;8.294;2023-05-19T14:40:01;19.60;99.90
563;DHT22;266;49.514;8.294;2023-05-19T14:42:30;19.70;99.90
563;DHT22;266;49.514;8.294;2023-05-19T14:44:59;19.50;99.90
563;DHT22;266;49.514;8.294;2023-05-19T14:47:28;19.20;99.90
563;DHT22;266;49.514;8.294;2023-05-19T14:49:56;18.90;99.90
563;DHT22;266;49.514;8.294;2023-05-19T14:52:24;19.00;99.90
563;DHT22;266;49.514;8.294;2023-05-19T14:54:52;19.10;99.90
563;DHT22;266;49.514;8.294;2023-05-19T14:57:21;19.20;99.90
563;DHT22;266;49.514;8.294;2023-05-19T14:59:49;19.20;99.90
563;DHT22;266;49.514;8.294;2023-05-19T15:02:18;19.30;99.90
563;DHT22;266;49.514;8.294;2023-05-19T15:04:47;19.30;99.90
563;DHT22;266;49.514;8.294;2023-05-19T15:07:15;19.40;99.90
563;DHT22;266;49.514;8.294;2023-05-19T15:09:43;19.50;99.90
563;DHT22;266;49.514;8.294;2023-05-19T15:12:11;19.50;99.90
563;DHT22;266;49.514;8.294;2023-05-19T15:14:38;19.60;99.90
563;DHT22;266;49.514;8.294;2023-05-19T15:17:06;19.50;99.90
563;DHT22;266;49.514;8.294;2023-05-19T15:19:36;19.50;99.90
563;DHT22;266;49.514;8.294;2023-05-19T15:22:04;19.50;99.90
563;DHT22;266;49.514;8.294;2023-05-19T15:24:32;19.50;99.90
563;DHT22;266;49.514;8.294;2023-05-19T15:27:00;19.60;99.90
563;DHT22;266;49.514;8.294;2023-05-19T15:29:28;19.40;99.90
563;DHT22;266;49.514;8.294;2023-05-19T15:31:56;19.20;99.90
563;DHT22;266;49.514;8.294;2023-05-19T15:34:24;19.00;99.90
563;DHT22;266;49.514;8.294;2023-05-19T15:36:53;19.00;99.90
563;DHT22;266;49.514;8.294;2023-05-19T15:39:21;19.10;99.90
563;DHT22;266;49.514;8.294;2023-05-19T15:41:49;19.20;99.90
563;DHT22;266;49.514;8.294;2023-05-19T15:44:17;19.20;99.90
563;DHT22;266;49.514;8.294;2023-05-19T15:46:45;19.10;99.90
563;DHT22;266;49.514;8.294;2023-05-19T15:49:13;19.00;99.90
563;DHT22;266;49.514;8.294;2023-05-19T15:51:43;19.00;99.90
563;DHT22;266;49.514;8.294;2023-05-19T15:54:13;19.00;99.90
563;DHT22;266;49.514;8.294;2023-05-19T15:56:40;19.00;99.90
563;DHT22;266;49.514;8.294;2023-05-19T15:59:08;19.10;99.90
563;DHT22;266;49.514;8.294;2023-05-19T16:01:36;19.20;99.90
563;DHT22;266;49.514;8.294;2023-05-19T16:04:04;19.30;99.90
563;DHT22;266;49.514;8.294;2023-05-19T16:06:32;19.20;99.90
563;DHT22;266;49.514;8.294;2023-05-19T16:09:00;19.10;99.90
563;DHT22;266;49.514;8.294;2023-05-19T16:11:30;19.20;99.90
563;DHT22;266;49.514;8.294;2023-05-19T16:13:58;19.30;99.90
563;DHT22;266;49.514;8.294;2023-05-19T16:16:26;19.30;99.90
563;DHT22;266;49.514;8.294;2023-05-19T16:18:54;19.40;99.90
563;DHT22;266;49.514;8.294;2023-05-19T16:21:22;19.40;99.90
563;DHT22;266;49.514;8.294;2023-05-19T16:23:50;19.40;99.90
563;DHT22;266;49.514;8.294;2023-05-19T16:26:18;19.40;99.90
563;DHT22;266;49.514;8.294;2023-05-19T16:28:48;19.50;99.90
563;DHT22;266;49.514;8.294;2023-05-19T16:31:16;19.40;99.90
563;DHT22;266;49.514;8.294;2023-05-19T16:33:44;19.50;99.90
563;DHT22;266;49.514;8.294;2023-05-19T16:36:12;19.50;99.90
563;DHT22;266;49.514;8.294;2023-05-19T16:38:40;19.50;99.90
563;DHT22;266;49.514;8.294;2023-05-19T16:41:10;19.40;99.90
563;DHT22;266;49.514;8.294;2023-05-19T16:43:38;19.40;99.90
563;DHT22;266;49.514;8.294;2023-05-19T16:46:07;19.50;99.90
563;DHT22;266;49.514;8.294;2023-05-19T16:48:38;19.50;99.90
563;DHT22;266;49.514;8.294;2023-05-19T16:51:05;19.30;99.90
563;DHT22;266;49.514;8.294;2023-05-19T16:53:33;19.30;99.90
563;DHT22;266;49.514;8.294;2023-05-19T16:56:01;19.10;99.90
563;DHT22;266;49.514;8.294;2023-05-19T16:58:29;19.10;99.90